Time;durP1;ratioP1;P1;durP2;ratioP2;P2;SDS_P1;SDS_P2;PMS_P1;PMS_P2;Temp;Humidity;BMP_temperature;BMP_pressure;BME280_temperature;BME280_humidity;BME280_pressure;Samples;Min_cycle;Max_cycle;Signal;HPM_P1;HPM_P2
2022/06/18 00:00:19;;;;;;;6.87;6.17;;;;;;;16.16;76.41;101804.63;5032153;28;20555;-74
2022/06/18 00:02:45;;;;;;;7.27;5.90;;;;;;;16.19;76.08;101802.09;5031811;28;20568;-74
2022/06/18 00:05:14;;;;;;;6.53;5.90;;;;;;;16.20;76.40;101801.22;5032237;28;20181;-74
2022/06/18 00:07:43;;;;;;;7.30;6.10;;;;;;;16.13;76.38;101795.97;5031645;28;20198;-74
2022/06/18 00:10:15;;;;;;;5.53;5.00;;;;;;;16.05;76.72;101793.31;5031641;28;20190;-74
2022/06/18 00:15:29;;;;;;;6.10;5.47;;;;;;;16.09;76.32;101778.69;5031818;28;20697;-74
2022/06/18 00:17:55;;;;;;;6.10;5.50;;;;;;;15.99;76.23;101777.72;5031610;28;20197;-74
2022/06/18 00:20:29;;;;;;;6.33;5.73;;;;;;;16.01;76.17;101770.84;5031437;28;20285;-74
2022/06/18 00:22:57;;;;;;;5.87;5.27;;;;;;;15.94;76.40;101765.59;5031684;28;20183;-74
2022/06/18 00:25:28;;;;;;;6.93;5.50;;;;;;;15.90;76.56;101761.22;5031340;28;20726;-74
2022/06/18 00:27:54;;;;;;;5.80;5.23;;;;;;;15.85;76.87;101760.31;5031797;28;20207;-74
2022/06/18 00:30:23;;;;;;;6.43;5.40;;;;;;;15.84;76.95;101758.59;5013142;28;20256;-74
2022/06/18 00:32:49;;;;;;;6.20;5.60;;;;;;;15.74;77.19;101757.59;4997463;28;20252;-74
2022/06/18 00:35:15;;;;;;;7.90;5.77;;;;;;;15.74;76.62;101760.16;5013087;28;20637;-74
2022/06/18 00:37:43;;;;;;;7.33;5.67;;;;;;;15.76;76.38;101755.03;5031624;28;20248;-74
2022/06/18 00:40:11;;;;;;;8.07;5.90;;;;;;;15.75;76.43;101751.56;5013211;28;20193;-74
2022/06/18 00:42:38;;;;;;;6.50;5.80;;;;;;;15.72;76.32;101748.09;5013470;28;20205;-74
2022/06/18 00:45:05;;;;;;;6.00;5.50;;;;;;;15.68;76.12;101751.47;5031388;28;20606;-73
2022/06/18 00:48:02;;;;;;;5.80;5.30;;;;;;;15.64;76.79;101753.16;5013104;28;20186;-74
2022/06/18 00:50:39;;;;;;;5.80;5.30;;;;;;;15.61;76.87;101750.50;5012994;28;20249;-74
2022/06/18 00:53:19;;;;;;;8.13;5.40;;;;;;;15.56;77.32;101748.75;5012942;28;20198;-74
2022/06/18 00:55:56;;;;;;;6.53;5.33;;;;;;;15.45;77.70;101745.13;5013303;28;20206;-74
2022/06/18 00:58:29;;;;;;;5.70;4.87;;;;;;;15.49;77.04;101737.47;5012708;28;20289;-74
2022/06/18 01:00:56;;;;;;;6.43;5.30;;;;;;;15.46;77.28;101739.09;5013010;28;20232;-74
2022/06/18 01:03:30;;;;;;;6.83;5.10;;;;;;;15.41;77.72;101739.06;5013065;28;20557;-74
2022/06/18 01:06:08;;;;;;;6.00;5.37;;;;;;;15.42;77.30;101732.19;5013259;28;20217;-74
2022/06/18 01:08:34;;;;;;;6.23;5.00;;;;;;;15.39;78.14;101726.97;5012977;28;20942;-74
2022/06/18 01:11:02;;;;;;;6.10;5.40;;;;;;;15.38;77.70;101727.84;4996800;28;20213;-74
2022/06/18 01:13:38;;;;;;;5.43;4.90;;;;;;;15.30;78.61;101726.81;5013279;28;20183;-73
2022/06/18 01:16:08;;;;;;;5.70;5.20;;;;;;;15.32;78.35;101720.81;5012747;28;20210;-74
2022/06/18 01:18:34;;;;;;;5.60;5.10;;;;;;;15.30;78.36;101717.38;5012961;28;20193;-74
2022/06/18 01:21:15;;;;;;;6.10;5.20;;;;;;;15.33;77.69;101713.97;5012175;28;20201;-74
2022/06/18 01:23:48;;;;;;;4.70;4.30;;;;;;;15.28;78.10;101707.88;5012897;28;20662;-73
2022/06/18 01:26:14;;;;;;;5.23;4.73;;;;;;;15.32;78.11;101709.63;5012305;28;20229;-73
2022/06/18 01:28:40;;;;;;;5.57;4.90;;;;;;;15.29;78.66;101700.13;5012721;28;20616;-74
2022/06/18 01:31:07;;;;;;;5.93;4.97;;;;;;;15.30;78.40;101699.31;5011937;28;20209;-73
2022/06/18 01:33:33;;;;;;;5.90;4.43;;;;;;;15.31;77.80;101701.03;4996311;28;20198;-73
2022/06/18 01:36:03;;;;;;;5.27;4.83;;;;;;;15.36;77.23;101689.09;4996020;28;20348;-74
2022/06/18 01:38:28;;;;;;;8.47;4.87;;;;;;;15.38;77.78;101694.28;5012440;28;20866;-74
2022/06/18 01:44:09;;;;;;;5.30;4.80;;;;;;;15.33;77.56;101677.84;5012387;28;20201;-74
2022/06/18 01:46:37;;;;;;;6.10;4.90;;;;;;;15.36;77.45;101677.88;5012809;28;20186;-74
2022/06/18 01:49:07;;;;;;;5.70;5.07;;;;;;;15.35;77.30;101674.47;5011536;28;20806;-74
2022/06/18 01:51:36;;;;;;;4.97;4.57;;;;;;;15.35;77.73;101677.03;4995990;28;20642;-74
2022/06/18 01:54:11;;;;;;;5.83;4.57;;;;;;;15.35;77.27;101668.41;4995963;28;20236;-74
2022/06/18 01:56:44;;;;;;;5.67;4.70;;;;;;;15.37;77.23;101667.59;5012273;28;20186;-74
2022/06/18 01:59:24;;;;;;;4.70;4.17;;;;;;;15.33;77.14;101665.78;5011715;28;20273;-73
2022/06/18 02:01:50;;;;;;;6.07;4.70;;;;;;;15.35;77.17;101661.56;5012119;28;20197;-73
2022/06/18 02:04:20;;;;;;;5.40;4.40;;;;;;;15.32;76.96;101652.84;5011724;28;20216;-73
2022/06/18 02:06:48;;;;;;;7.80;4.60;;;;;;;15.30;78.00;101650.28;4995692;28;20194;-74
2022/06/18 02:09:32;;;;;;;5.47;4.93;;;;;;;15.24;77.80;101645.00;5011577;28;20193;-74
2022/06/18 02:12:00;;;;;;;5.13;4.20;;;;;;;15.22;77.63;101638.97;5011985;28;20217;-74
2022/06/18 02:14:27;;;;;;;4.83;4.23;;;;;;;15.26;77.65;101637.28;5011890;28;20252;-74
2022/06/18 02:16:56;;;;;;;5.37;4.67;;;;;;;15.25;77.73;101635.56;5011837;28;20817;-74
2022/06/18 02:19:22;;;;;;;5.67;4.50;;;;;;;15.21;77.37;101631.19;5029627;28;20208;-74
2022/06/18 02:21:52;;;;;;;6.30;4.43;;;;;;;15.20;77.42;101625.16;5011463;28;20214;-74
2022/06/18 02:24:18;;;;;;;5.60;4.30;;;;;;;15.18;78.03;101626.88;5012042;28;20269;-74
2022/06/18 02:26:46;;;;;;;7.60;4.27;;;;;;;15.19;77.87;101623.44;5029412;28;20182;-74
2022/06/18 02:29:23;;;;;;;4.70;4.30;;;;;;;15.20;77.40;101626.91;4995624;28;20191;-74
2022/06/18 02:31:51;;;;;;;6.53;4.40;;;;;;;15.22;77.96;101630.34;5011402;28;20206;-74
2022/06/18 02:34:19;;;;;;;5.10;4.60;;;;;;;15.21;77.58;101624.34;5011765;28;20202;-74
2022/06/18 02:36:46;;;;;;;6.87;4.57;;;;;;;15.22;76.51;101618.31;4995431;28;20652;-74
2022/06/18 02:39:36;;;;;;;5.53;4.47;;;;;;;15.19;77.11;101615.69;5029053;28;20195;-74
2022/06/18 02:42:14;;;;;;;5.60;4.07;;;;;;;15.18;77.30;101616.56;5029461;28;20285;-74
2022/06/18 02:44:42;;;;;;;6.27;4.20;;;;;;;15.20;77.31;101614.00;5011103;28;20550;-74
2022/06/18 02:47:09;;;;;;;6.37;4.13;;;;;;;15.25;77.47;101614.91;5011363;28;20685;-74
2022/06/18 02:49:39;;;;;;;5.40;4.27;;;;;;;15.24;77.35;101606.28;5010410;28;20209;-74
2022/06/18 02:52:06;;;;;;;6.53;4.33;;;;;;;15.22;77.92;101604.53;5011592;28;20703;-74
2022/06/18 02:54:32;;;;;;;7.80;4.23;;;;;;;15.22;77.60;101612.28;5010576;28;20228;-74
2022/06/18 02:57:02;;;;;;;5.63;4.07;;;;;;;15.24;77.54;101600.28;5011803;28;20186;-74
2022/06/18 02:59:30;;;;;;;5.17;4.30;;;;;;;15.29;77.02;101601.22;5010593;28;20232;-74
2022/06/18 03:01:56;;;;;;;5.67;4.20;;;;;;;15.27;77.39;101605.47;5010741;28;20210;-74
2022/06/18 03:04:23;;;;;;;4.23;3.70;;;;;;;15.27;77.15;101602.88;5011160;28;20188;-74
2022/06/18 03:06:48;;;;;;;4.80;3.70;;;;;;;15.26;77.63;101599.47;5011046;28;20265;-74
2022/06/18 03:09:14;;;;;;;6.13;4.50;;;;;;;15.29;77.15;101596.06;5011613;28;20668;-74
2022/06/18 03:14:23;;;;;;;4.30;3.93;;;;;;;15.31;77.37;101595.22;5011366;28;20637;-74
2022/06/18 03:16:49;;;;;;;5.00;4.37;;;;;;;15.29;77.32;101589.16;5010716;28;20270;-73
2022/06/18 03:19:27;;;;;;;4.80;4.37;;;;;;;15.33;77.32;101584.91;5011140;28;20186;-73
2022/06/18 03:21:59;;;;;;;5.43;4.30;;;;;;;15.36;77.37;101584.97;5012975;28;20749;-73
2022/06/18 03:24:24;;;;;;;5.10;4.60;;;;;;;15.36;77.10;101582.38;5015056;28;20243;-74
2022/06/18 03:26:51;;;;;;;5.07;4.20;;;;;;;15.39;77.33;101585.91;5014899;28;20272;-73
2022/06/18 03:29:17;;;;;;;5.20;3.87;;;;;;;15.37;77.16;101584.16;5014511;28;20316;-74
2022/06/18 03:31:42;;;;;;;6.40;4.30;;;;;;;15.41;77.22;101585.88;5014539;28;20793;-74
2022/06/18 03:34:08;;;;;;;6.93;4.37;;;;;;;15.40;78.08;101579.88;5032183;28;20175;-74
2022/06/18 03:36:33;;;;;;;5.63;4.03;;;;;;;15.43;77.26;101573.88;5032580;28;20702;-74
2022/06/18 03:38:59;;;;;;;5.90;4.30;;;;;;;15.43;77.41;101569.56;5014526;28;20194;-74
2022/06/18 03:41:26;;;;;;;5.90;4.03;;;;;;;15.43;77.45;101574.72;5014752;28;20210;-74
2022/06/18 03:43:54;;;;;;;5.87;4.20;;;;;;;15.45;77.74;101570.47;5014963;28;20186;-74
2022/06/18 03:46:21;;;;;;;4.10;3.70;;;;;;;15.47;77.73;101560.16;5014443;28;20185;-74
2022/06/18 03:48:46;;;;;;;6.73;4.40;;;;;;;15.49;78.42;101561.03;5014694;28;20194;-75
2022/06/18 03:51:14;;;;;;;4.37;3.97;;;;;;;15.53;77.87;101560.22;5013982;28;20268;-74
2022/06/18 03:53:40;;;;;;;4.67;4.17;;;;;;;15.59;77.73;101562.88;5014509;28;20186;-73
2022/06/18 03:56:08;;;;;;;5.10;4.00;;;;;;;15.59;77.78;101566.31;5013722;28;20203;-74
2022/06/18 03:58:40;;;;;;;4.97;4.00;;;;;;;15.62;78.25;101565.47;5014452;28;20217;-74
2022/06/18 04:01:07;;;;;;;6.47;4.03;;;;;;;15.64;78.57;101558.59;5013464;28;20217;-74
2022/06/18 04:03:34;;;;;;;5.77;4.00;;;;;;;15.69;77.91;101565.56;5014288;28;20568;-74
2022/06/18 04:06:00;;;;;;;4.23;3.83;;;;;;;15.73;77.99;101577.66;5014326;28;20174;-74
2022/06/18 04:08:26;;;;;;;4.57;3.97;;;;;;;15.73;77.83;101581.94;5013706;28;20182;-74
2022/06/18 04:11:02;;;;;;;5.43;4.13;;;;;;;15.80;78.08;101579.44;5014153;28;20206;-74
2022/06/18 04:13:28;;;;;;;7.30;4.53;;;;;;;15.87;78.11;101581.25;5013756;28;20186;-74
2022/06/18 04:16:13;;;;;;;7.17;4.57;;;;;;;15.96;78.04;101588.19;5000316;28;20206;-74
2022/06/18 04:18:40;;;;;;;5.67;3.90;;;;;;;16.01;77.68;101586.53;5013537;28;20179;-74
2022/06/18 04:21:09;;;;;;;4.47;4.07;;;;;;;16.07;77.54;101577.13;5013630;28;20591;-74
2022/06/18 04:23:38;;;;;;;6.07;3.90;;;;;;;16.16;78.55;101582.38;5013131;28;20198;-74
2022/06/18 04:26:04;;;;;;;5.20;4.10;;;;;;;16.24;78.38;101574.69;5013592;28;20361;-73
2022/06/18 04:28:30;;;;;;;4.90;4.10;;;;;;;16.32;77.54;101583.38;5013944;28;20191;-74
2022/06/18 04:31:02;;;;;;;4.33;3.53;;;;;;;16.40;76.32;101577.41;4997916;28;20217;-74
2022/06/18 04:33:39;;;;;;;4.70;3.93;;;;;;;16.53;76.46;101579.25;5013526;28;20275;-74
2022/06/18 04:36:36;;;;;;;5.03;3.87;;;;;;;16.63;75.55;101581.03;4998866;28;20206;-73
2022/06/18 04:39:08;;;;;;;4.67;4.17;;;;;;;16.72;75.54;101580.25;5013666;28;20293;-74
2022/06/18 04:41:42;;;;;;;4.17;3.77;;;;;;;16.80;75.23;101574.25;4997705;28;20816;-73
2022/06/18 04:44:24;;;;;;;6.40;3.77;;;;;;;16.91;74.67;101580.34;5013683;28;20690;-74
2022/06/18 04:46:53;;;;;;;5.07;3.83;;;;;;;17.00;75.04;101577.81;5013061;28;20195;-74
2022/06/18 04:49:19;;;;;;;4.00;3.60;;;;;;;17.09;74.36;101574.41;5013768;28;20273;-74
2022/06/18 04:51:47;;;;;;;6.50;4.10;;;;;;;17.21;74.44;101575.34;5013113;28;20745;-73
2022/06/18 04:54:14;;;;;;;3.97;3.63;;;;;;;17.31;74.08;101574.50;5013614;28;20663;-74
2022/06/18 04:56:40;;;;;;;6.73;3.90;;;;;;;17.43;73.79;101560.75;5021061;28;20235;-74
2022/06/18 04:59:05;;;;;;;6.77;3.70;;;;;;;17.56;74.24;101558.22;5013183;28;20240;-74
2022/06/18 05:01:31;;;;;;;4.70;4.13;;;;;;;17.65;73.62;101554.78;5013272;28;20218;-74
2022/06/18 05:04:15;;;;;;;4.30;3.90;;;;;;;17.80;73.40;101557.41;5030710;28;20606;-74
2022/06/18 05:06:48;;;;;;;5.37;3.90;;;;;;;17.92;72.94;101560.88;5013282;28;20190;-74
2022/06/18 05:09:25;;;;;;;4.87;3.93;;;;;;;18.08;72.96;101557.44;5012665;28;20190;-74
2022/06/18 05:12:05;;;;;;;5.40;3.90;;;;;;;18.23;72.47;101564.38;4998556;28;20292;-74
2022/06/18 05:14:57;;;;;;;5.80;3.77;;;;;;;18.37;72.59;101565.25;4991985;28;20226;-74
2022/06/18 05:17:28;;;;;;;4.73;3.93;;;;;;;18.50;71.13;101567.81;5012925;28;20571;-74
2022/06/18 05:19:57;;;;;;;6.00;3.87;;;;;;;18.66;71.25;101571.25;5012236;28;20178;-74
2022/06/18 05:22:23;;;;;;;4.83;3.57;;;;;;;18.79;71.16;101571.22;5012607;28;20190;-74
2022/06/18 05:24:51;;;;;;;4.60;3.83;;;;;;;18.93;70.78;101568.59;5012467;28;20183;-74
2022/06/18 05:27:25;;;;;;;4.67;3.70;;;;;;;19.06;69.90;101572.84;5012853;28;20236;-74
2022/06/18 05:29:54;;;;;;;4.07;3.50;;;;;;;19.17;68.52;101568.50;5009283;28;20252;-74
2022/06/18 05:32:21;;;;;;;6.30;3.23;;;;;;;19.33;67.97;101572.78;5012164;28;20186;-74
2022/06/18 05:34:47;;;;;;;4.77;3.40;;;;;;;19.49;68.19;101567.50;5012755;28;20263;-74
2022/06/18 05:37:19;;;;;;;4.83;3.80;;;;;;;19.61;68.09;101562.25;5013135;28;20201;-74
2022/06/18 05:39:45;;;;;;;3.97;3.60;;;;;;;19.80;67.92;101566.47;5013373;28;20182;-75
2022/06/18 05:42:11;;;;;;;4.33;3.60;;;;;;;19.93;67.67;101555.09;4996015;28;20213;-75
2022/06/18 05:44:37;;;;;;;5.87;3.13;;;;;;;20.13;67.03;101550.63;5012396;28;20551;-75
2022/06/18 05:47:20;;;;;;;5.00;3.63;;;;;;;20.29;66.51;101547.06;5012398;28;20191;-76
2022/06/18 05:49:45;;;;;;;4.03;3.53;;;;;;;20.43;66.20;101539.09;5012642;28;20190;-75
2022/06/18 05:52:12;;;;;;;3.70;3.40;;;;;;;20.57;66.78;101535.50;5013137;28;20203;-75
2022/06/18 05:54:37;;;;;;;4.57;3.63;;;;;;;20.72;66.07;101534.44;5011934;28;20292;-74
2022/06/18 05:57:11;;;;;;;6.07;3.47;;;;;;;20.92;65.83;101522.97;5012417;28;20188;-75
2022/06/18 05:59:45;;;;;;;3.80;3.27;;;;;;;21.10;64.39;101529.72;5011627;28;20186;-74
2022/06/18 06:02:12;;;;;;;3.83;3.20;;;;;;;21.32;63.35;101525.94;5012161;28;20240;-74
2022/06/18 06:04:39;;;;;;;6.47;3.10;;;;;;;21.48;63.02;101510.09;5011779;28;20178;-75
2022/06/18 06:07:25;;;;;;;4.27;3.07;;;;;;;21.68;63.17;101508.03;5012266;28;20248;-75
2022/06/18 06:12:37;;;;;;;5.53;3.10;;;;;;;22.01;60.98;101499.69;5012296;28;20186;-74
2022/06/18 06:15:04;;;;;;;3.90;3.00;;;;;;;22.22;60.74;101501.06;5011548;28;20700;-75
2022/06/18 06:17:29;;;;;;;3.33;2.67;;;;;;;22.39;60.24;101507.72;5011990;28;20549;-74
2022/06/18 06:20:16;;;;;;;3.33;2.90;;;;;;;22.52;59.09;101505.78;5029557;28;20256;-73
2022/06/18 06:22:41;;;;;;;3.00;2.70;;;;;;;22.71;58.88;101495.84;5011740;28;20667;-74
2022/06/18 06:25:07;;;;;;;3.67;3.07;;;;;;;22.91;57.93;101501.50;5029744;28;20179;-73
2022/06/18 06:27:32;;;;;;;3.57;3.17;;;;;;;23.01;57.29;101498.69;5029056;28;20251;-74
2022/06/18 06:29:58;;;;;;;4.37;3.27;;;;;;;23.13;57.63;101498.44;5029357;28;20201;-73
2022/06/18 06:32:23;;;;;;;3.30;3.00;;;;;;;23.37;57.46;101499.66;5011246;28;20201;-74
2022/06/18 06:34:49;;;;;;;6.70;3.53;;;;;;;23.50;56.99;101501.13;5029429;28;20225;-74
2022/06/18 06:37:14;;;;;;;4.03;3.50;;;;;;;23.59;54.82;101495.69;5029218;28;20197;-74
2022/06/18 06:39:39;;;;;;;3.63;3.13;;;;;;;23.88;56.20;101503.69;5029327;28;20611;-74
2022/06/18 06:42:05;;;;;;;5.07;3.50;;;;;;;24.00;55.83;101498.19;5011700;28;20207;-74
2022/06/18 06:44:34;;;;;;;7.30;3.23;;;;;;;24.05;54.59;101501.56;5011112;28;20781;-73
2022/06/18 06:46:59;;;;;;;4.77;2.90;;;;;;;24.10;54.68;101499.66;5029391;28;20182;-74
2022/06/18 06:49:25;;;;;;;4.83;3.50;;;;;;;24.15;54.30;101503.91;5028833;28;20194;-74
2022/06/18 06:51:53;;;;;;;3.63;3.17;;;;;;;24.28;54.66;101501.81;5029060;28;20226;-74
2022/06/18 06:54:19;;;;;;;4.90;3.33;;;;;;;24.43;54.39;101499.66;5028791;28;20261;-74
2022/06/18 06:59:29;;;;;;;4.23;3.60;;;;;;;24.74;53.20;101500.59;5032787;28;20182;-74
2022/06/18 07:01:54;;;;;;;5.27;3.67;;;;;;;24.66;53.36;101502.53;5032853;28;20216;-74
2022/06/18 07:04:20;;;;;;;4.75;3.40;;;;;;;24.92;52.56;101502.69;5032730;28;20187;-73
2022/06/18 07:06:45;;;;;;;5.10;3.42;;;;;;;25.08;52.64;101492.59;5030235;28;20270;-74
2022/06/18 07:09:11;;;;;;;5.55;3.85;;;;;;;25.23;52.26;101490.38;5031578;28;20549;-74
2022/06/18 07:11:37;;;;;;;7.30;3.78;;;;;;;25.30;52.39;101491.06;5029997;28;20317;-73
2022/06/18 07:14:03;;;;;;;6.90;4.10;;;;;;;25.50;50.99;101492.16;5032373;28;20269;-73
2022/06/18 07:16:28;;;;;;;6.20;4.13;;;;;;;25.56;51.24;101491.97;5032605;28;20703;-74
2022/06/18 07:18:55;;;;;;;6.45;3.72;;;;;;;25.67;50.23;101489.88;5014890;28;20191;-74
2022/06/18 07:21:21;;;;;;;7.25;3.55;;;;;;;25.79;50.30;101489.47;5032655;28;20207;-73
2022/06/18 07:23:48;;;;;;;8.02;3.95;;;;;;;25.88;50.17;101504.09;5032599;28;20644;-74
2022/06/18 07:26:16;;;;;;;4.47;3.60;;;;;;;25.96;49.80;101489.81;5032801;28;20193;-74
2022/06/18 07:28:43;;;;;;;5.65;3.58;;;;;;;26.14;50.03;101491.81;5032428;28;20316;-73
2022/06/18 07:31:19;;;;;;;7.82;3.60;;;;;;;26.29;50.78;101490.44;5032109;28;20586;-74
2022/06/18 07:33:46;;;;;;;5.15;3.72;;;;;;;26.17;50.52;101488.22;5031971;28;20400;-74
2022/06/18 07:36:11;;;;;;;6.10;4.32;;;;;;;26.22;49.81;101502.06;5032324;28;20241;-74
2022/06/18 07:38:37;;;;;;;6.68;3.88;;;;;;;26.46;49.10;101499.44;5032626;28;20213;-73
2022/06/18 07:41:04;;;;;;;6.78;4.43;;;;;;;26.52;48.74;101512.38;5031681;28;20703;-74
2022/06/18 07:43:37;;;;;;;7.57;4.38;;;;;;;26.54;48.59;101509.69;5032603;28;20615;-73
2022/06/18 07:46:05;;;;;;;5.40;4.00;;;;;;;26.65;49.09;101502.28;5013971;28;20300;-73
2022/06/18 07:48:31;;;;;;;7.07;4.20;;;;;;;26.70;48.84;101509.13;5032384;28;20190;-73
2022/06/18 07:50:56;;;;;;;5.80;4.00;;;;;;;26.69;49.22;101504.78;5031634;28;20202;-74
2022/06/18 07:53:24;;;;;;;6.88;3.70;;;;;;;26.91;48.72;101500.44;5032402;28;20189;-73
2022/06/18 07:55:50;;;;;;;7.88;4.45;;;;;;;27.16;49.01;101509.13;5031791;28;20869;-73
2022/06/18 07:58:16;;;;;;;7.10;4.18;;;;;;;27.24;48.73;101506.22;5014408;28;20190;-73
2022/06/18 08:00:42;;;;;;;4.13;3.72;;;;;;;27.10;47.97;101498.84;4997862;28;20707;-73
2022/06/18 08:03:10;;;;;;;7.22;4.40;;;;;;;27.39;47.99;101495.09;5031430;28;20198;-73
2022/06/18 08:05:36;;;;;;;7.68;4.75;;;;;;;26.97;47.84;101494.94;5031936;28;20273;-73
2022/06/18 08:08:03;;;;;;;8.68;4.47;;;;;;;26.91;48.34;101502.22;5012809;28;20261;-73
2022/06/18 08:10:30;;;;;;;7.50;4.07;;;;;;;27.32;47.97;101493.63;5031565;28;20317;-73
2022/06/18 08:12:56;;;;;;;7.78;4.10;;;;;;;27.60;47.68;101489.00;5031434;28;20305;-74
2022/06/18 08:15:21;;;;;;;7.65;3.92;;;;;;;27.87;47.30;101486.13;5031932;28;20745;-73
2022/06/18 08:17:47;;;;;;;6.55;4.03;;;;;;;27.95;47.67;101488.47;5031798;28;20649;-73
2022/06/18 08:20:13;;;;;;;8.20;4.45;;;;;;;28.12;47.70;101499.13;5031083;28;20572;-73
2022/06/18 08:22:44;;;;;;;6.03;4.13;;;;;;;28.09;47.26;101496.63;5031764;28;20190;-74
2022/06/18 08:25:11;;;;;;;7.70;3.90;;;;;;;28.18;46.57;101502.34;5031157;28;20232;-73
2022/06/18 08:27:36;;;;;;;10.77;4.78;;;;;;;27.79;47.87;101503.13;5013827;28;20194;-73
2022/06/18 08:30:04;;;;;;;7.93;4.38;;;;;;;27.74;47.21;101502.47;5030739;28;20221;-73
2022/06/18 08:32:29;;;;;;;8.38;4.13;;;;;;;28.32;46.89;101504.41;5031567;28;20221;-73
2022/06/18 08:34:55;;;;;;;6.47;4.18;;;;;;;28.47;45.61;101499.38;5031677;28;20198;-73
2022/06/18 08:37:20;;;;;;;6.97;4.65;;;;;;;28.66;45.94;101502.91;5031415;28;20621;-73
2022/06/18 08:39:46;;;;;;;5.82;4.07;;;;;;;28.83;46.14;101497.72;5031197;28;20182;-73
2022/06/18 08:42:34;;;;;;;4.35;3.83;;;;;;;28.81;45.59;101491.66;5030650;28;20723;-73
2022/06/18 08:45:23;;;;;;;7.18;4.30;;;;;;;28.91;45.29;101484.16;5031334;28;20274;-73
2022/06/18 08:47:58;;;;;;;6.55;4.30;;;;;;;29.07;44.71;101482.59;5013493;28;20189;-73
2022/06/18 08:50:44;;;;;;;8.13;4.43;;;;;;;29.18;44.55;101488.22;5030857;28;20209;-73
2022/06/18 08:53:18;;;;;;;8.13;4.88;;;;;;;28.66;45.07;101495.00;5030800;28;20175;-73
2022/06/18 08:55:57;;;;;;;8.60;5.72;;;;;;;28.59;45.34;101497.94;5030946;28;20206;-73
2022/06/18 08:58:54;;;;;;;6.28;3.85;;;;;;;28.93;45.55;101498.16;5030227;28;20190;-73
2022/06/18 09:01:31;;;;;;;8.20;4.60;;;;;;;28.94;45.50;101494.59;5029672;28;20199;-73
2022/06/18 09:04:03;;;;;;;9.25;4.50;;;;;;;29.05;45.16;101494.97;5030364;28;20268;-73
2022/06/18 09:06:37;;;;;;;8.10;4.43;;;;;;;29.54;44.10;101486.47;5030712;28;20193;-74
2022/06/18 09:09:33;;;;;;;12.63;4.95;;;;;;;29.77;43.50;101489.75;5030221;28;20182;-74
2022/06/18 09:12:10;;;;;;;6.75;4.32;;;;;;;29.56;43.83;101492.56;5030623;28;20214;-73
2022/06/18 09:14:55;;;;;;;8.10;4.40;;;;;;;29.68;43.84;101491.97;5030174;28;20216;-73
2022/06/18 09:17:34;;;;;;;6.70;4.13;;;;;;;29.88;43.95;101490.03;5027059;28;20213;-73
2022/06/18 09:20:20;;;;;;;5.43;3.63;;;;;;;30.31;43.64;101507.28;5030379;28;20640;-74
2022/06/18 09:22:52;;;;;;;8.55;4.15;;;;;;;30.45;42.97;101501.25;5030682;28;20269;-73
2022/06/18 09:25:20;;;;;;;7.13;4.20;;;;;;;30.39;42.72;101507.75;5012732;28;20600;-73
2022/06/18 09:27:55;;;;;;;6.25;3.95;;;;;;;30.69;42.89;101505.28;5030156;28;20221;-74
2022/06/18 09:30:43;;;;;;;6.70;3.88;;;;;;;30.75;42.93;101513.75;5029988;28;20705;-74
2022/06/18 09:33:15;;;;;;;6.63;3.60;;;;;;;30.79;42.76;101515.31;5029809;28;20190;-74
2022/06/18 09:35:43;;;;;;;6.28;3.63;;;;;;;30.91;41.94;101506.72;5030615;28;20323;-74
2022/06/18 09:38:28;;;;;;;8.70;4.15;;;;;;;30.94;42.40;101513.66;5029821;28;20265;-74
2022/06/18 09:41:00;;;;;;;6.60;3.65;;;;;;;31.22;42.23;101511.22;5029947;28;20206;-73
2022/06/18 09:43:30;;;;;;;6.93;4.10;;;;;;;31.20;42.01;101505.97;5029580;28;20225;-73
2022/06/18 09:46:01;;;;;;;11.73;4.45;;;;;;;31.18;41.27;101514.94;5030267;28;20207;-73
2022/06/18 09:48:27;;;;;;;6.53;4.00;;;;;;;31.10;40.59;101509.22;5029948;28;20741;-74
2022/06/18 09:50:59;;;;;;;9.85;4.15;;;;;;;30.86;42.20;101515.84;5030073;28;20210;-73
2022/06/18 09:53:38;;;;;;;6.55;4.03;;;;;;;31.40;42.28;101511.03;5030256;28;20670;-74
2022/06/18 09:56:09;;;;;;;5.95;3.90;;;;;;;31.64;40.77;101519.41;5011936;28;20226;-73
2022/06/18 09:58:52;;;;;;;5.57;3.58;;;;;;;31.66;40.00;101522.81;5029936;28;20622;-74
2022/06/18 10:01:21;;;;;;;6.07;4.07;;;;;;;31.55;40.51;101512.00;5026426;28;20203;-74
2022/06/18 10:09:25;;;;;;;7.28;5.05;;;;;;;31.37;41.34;101523.63;5025589;28;20605;-74
2022/06/18 10:11:50;;;;;;;6.57;4.22;;;;;;;31.57;41.60;101533.94;5028076;28;20209;-73
2022/06/18 10:14:21;;;;;;;10.23;5.80;;;;;;;31.44;40.30;101533.78;5029523;28;20178;-74
2022/06/18 10:16:57;;;;;;;8.85;4.82;;;;;;;31.61;40.90;101532.84;5029018;28;20190;-74
2022/06/18 10:19:41;;;;;;;8.23;5.90;;;;;;;31.58;41.60;101533.84;5029673;28;20675;-74
2022/06/18 10:22:28;;;;;;;9.13;5.82;;;;;;;31.73;41.08;101533.00;5009153;28;20249;-74
2022/06/18 10:25:22;;;;;;;6.85;4.50;;;;;;;31.75;42.33;101531.16;5016921;28;20178;-74
2022/06/18 10:27:53;;;;;;;6.90;4.18;;;;;;;31.60;41.75;101536.44;5014796;28;20715;-75
2022/06/18 10:30:24;;;;;;;8.32;4.40;;;;;;;31.32;40.60;101539.78;5028854;28;20202;-74
2022/06/18 10:33:10;;;;;;;10.35;4.70;;;;;;;31.43;41.31;101541.81;5028815;28;20186;-74
2022/06/18 10:36:08;;;;;;;7.50;4.32;;;;;;;31.39;41.17;101549.06;5029284;28;20198;-74
2022/06/18 10:39:11;;;;;;;6.90;4.07;;;;;;;31.43;41.48;101555.06;5028980;28;20178;-74
2022/06/18 10:41:43;;;;;;;8.55;3.88;;;;;;;31.15;40.81;101560.13;4996573;28;20283;-75
2022/06/18 10:44:14;;;;;;;12.30;3.65;;;;;;;31.36;41.88;101564.28;5042710;28;20185;-75
2022/06/18 10:46:40;;;;;;;4.75;3.45;;;;;;;31.43;40.83;101558.56;5040985;28;20202;-75
2022/06/18 10:49:06;;;;;;;11.52;3.42;;;;;;;31.05;40.67;101556.25;5029106;28;20633;-74
2022/06/18 10:52:02;;;;;;;8.25;3.63;;;;;;;31.08;41.03;101556.09;5010275;28;20202;-74
2022/06/18 10:54:36;;;;;;;4.70;2.95;;;;;;;31.26;40.93;101547.19;5016417;28;20202;-74
2022/06/18 10:57:03;;;;;;;6.28;3.00;;;;;;;31.48;41.03;101545.91;5028856;28;20559;-74
2022/06/18 10:59:39;;;;;;;8.00;4.05;;;;;;;31.68;40.31;101544.81;5019924;28;20236;-74
2022/06/18 11:02:08;;;;;;;7.70;3.58;;;;;;;31.75;39.58;101543.53;5028397;28;20304;-74
2022/06/18 11:04:35;;;;;;;6.85;3.53;;;;;;;31.33;40.08;101551.22;5012869;28;20182;-75
2022/06/18 11:07:05;;;;;;;9.15;3.58;;;;;;;31.45;40.60;101554.06;5028962;28;20265;-74
2022/06/18 11:09:31;;;;;;;5.22;3.13;;;;;;;30.79;40.50;101556.81;5029225;28;20204;-74
2022/06/18 11:12:01;;;;;;;6.65;3.30;;;;;;;31.23;40.47;101558.81;5028935;28;20317;-74
2022/06/18 11:14:31;;;;;;;5.22;2.65;;;;;;;31.28;40.57;101556.78;5034209;28;20178;-73
2022/06/18 11:16:57;;;;;;;5.65;2.42;;;;;;;31.30;40.23;101559.34;5032806;28;20183;-73
2022/06/18 11:19:34;;;;;;;8.60;3.20;;;;;;;31.25;40.88;101550.78;5028348;28;20216;-73
2022/06/18 11:22:10;;;;;;;4.85;2.70;;;;;;;31.44;39.67;101544.38;5028615;28;20734;-74
2022/06/18 11:24:37;;;;;;;8.35;3.20;;;;;;;31.24;40.88;101547.28;5028298;28;20221;-74
2022/06/18 11:27:06;;;;;;;3.92;3.13;;;;;;;31.39;40.07;101561.50;5028689;28;20827;-74
2022/06/18 11:29:47;;;;;;;8.60;3.20;;;;;;;31.41;40.41;101546.34;5010966;28;20201;-74
2022/06/18 11:32:20;;;;;;;6.60;3.28;;;;;;;31.54;39.39;101548.22;5028348;28;21054;-75
2022/06/18 11:34:50;;;;;;;7.25;2.92;;;;;;;31.50;39.17;101548.50;5031104;28;20240;-74
2022/06/18 11:37:29;;;;;;;4.93;2.70;;;;;;;31.67;39.64;101553.72;5027203;28;20183;-74
2022/06/18 11:40:03;;;;;;;4.85;2.97;;;;;;;31.70;38.64;101561.47;5028593;28;20540;-74
2022/06/18 11:42:50;;;;;;;5.75;3.08;;;;;;;31.63;39.95;101560.94;5029608;28;20542;-73
2022/06/18 11:45:16;;;;;;;7.18;2.83;;;;;;;31.53;39.95;101554.47;5032630;28;20178;-73
2022/06/18 11:47:58;;;;;;;8.07;2.95;;;;;;;31.50;40.11;101567.91;5031955;28;20558;-73
2022/06/18 11:50:33;;;;;;;5.13;2.85;;;;;;;31.52;39.27;101573.09;5014199;28;20217;-73
2022/06/18 11:53:34;;;;;;;8.73;2.75;;;;;;;31.46;40.81;101569.00;5031930;28;20197;-74
2022/06/18 11:56:02;;;;;;;5.53;3.10;;;;;;;31.55;40.14;101560.56;5032458;28;20533;-73
2022/06/18 11:58:37;;;;;;;6.35;4.03;;;;;;;31.66;40.18;101558.13;5032269;28;20265;-74
2022/06/18 12:01:27;;;;;;;5.53;3.30;;;;;;;31.49;40.66;101544.13;5032028;28;20208;-73